Flight Briefing for CMB857

Departure Arrival
Naval Station Rota (LERT)
Click to view FAA NOTAMS
Bahrain International Airport (OBBI)
Click to view FAA NOTAMS
Departure Time Arrival Time
N/A N/A
Aircraft Distance
B757-200SF 2947nm
Departure METAR Arrival METAR
LERT 252300Z 11018KT CAVOK 18/08 Q1012 NOSIG OBBI 252330Z 05010KT 8000 NSC 23/19 Q1008 NOSIG
Suggested Route
MGA2Z MGA A44 AMR A44 MOS A411 ALR A31 BNA J9 BTN J10 TBS P128 TANLI V300 ZAW WLD G659 GS UM999 NAKDO M999 LXR UL604 KFA M691 LADNA LADNA1


View recent IFR Routes data
Notes
USTRANSCOM CONTRACT FLIGHT

Charts and Procedures

Charts for LERT
No chart available
Charts for OBBI
No chart available

Windy.com Weather Map